createdAt,value
2022-12-17T00:01:09.009Z,0.90
2022-12-17T00:03:56.973Z,1.00
2022-12-17T00:06:42.344Z,0.90
2022-12-17T00:09:27.622Z,0.90
2022-12-17T00:12:12.974Z,0.90
2022-12-17T00:14:58.353Z,0.80
2022-12-17T00:17:43.813Z,0.90
2022-12-17T00:20:29.439Z,0.90
2022-12-17T00:23:22.480Z,1.00
2022-12-17T00:26:12.664Z,0.90
2022-12-17T00:28:58.731Z,0.90
2022-12-17T00:31:48.159Z,1.00
2022-12-17T00:34:33.338Z,0.90
2022-12-17T00:37:18.845Z,1.00
2022-12-17T00:40:04.312Z,0.80
2022-12-17T00:42:49.868Z,0.80
2022-12-17T00:45:35.136Z,0.90
2022-12-17T00:48:20.439Z,0.40
2022-12-17T00:51:05.773Z,0.70
2022-12-17T00:53:51.339Z,0.70
2022-12-17T00:56:36.821Z,0.90
2022-12-17T00:59:22.299Z,0.90
2022-12-17T01:02:07.669Z,0.90
2022-12-17T01:04:52.899Z,0.90
2022-12-17T01:07:39.406Z,1.00
2022-12-17T01:10:24.625Z,0.90
2022-12-17T01:13:10.129Z,1.00
2022-12-17T01:15:55.517Z,1.00
2022-12-17T01:18:41.875Z,0.80
2022-12-17T01:21:27.379Z,0.90
2022-12-17T01:24:12.759Z,1.00
2022-12-17T01:26:58.298Z,1.00
2022-12-17T01:29:43.527Z,1.10
2022-12-17T01:32:28.868Z,1.00
2022-12-17T01:35:14.411Z,1.20
2022-12-17T01:37:59.757Z,1.10
2022-12-17T01:40:45.135Z,1.10
2022-12-17T01:43:31.102Z,1.10
2022-12-17T01:46:17.036Z,1.10
2022-12-17T01:49:06.028Z,1.10
2022-12-17T01:51:52.408Z,0.90
2022-12-17T01:54:37.654Z,1.00
2022-12-17T01:57:25.777Z,0.80
2022-12-17T02:00:28.051Z,0.80
2022-12-17T02:03:13.437Z,1.00
2022-12-17T02:06:35.744Z,0.80
2022-12-17T02:09:36.486Z,1.00
2022-12-17T02:12:46.322Z,0.90
2022-12-17T02:15:36.894Z,0.90
2022-12-17T02:18:28.936Z,0.80
2022-12-17T02:21:16.308Z,0.60
2022-12-17T02:24:18.745Z,0.70
2022-12-17T02:27:08.274Z,0.70
2022-12-17T02:30:07.081Z,0.80
2022-12-17T02:32:53.992Z,0.90
2022-12-17T02:35:46.154Z,0.70
2022-12-17T02:38:40.223Z,0.80
2022-12-17T02:41:28.444Z,0.60
2022-12-17T02:44:14.966Z,0.70
2022-12-17T02:47:01.285Z,0.70
2022-12-17T02:49:46.711Z,0.60
2022-12-17T02:52:35.145Z,0.60
2022-12-17T02:55:20.635Z,0.50
2022-12-17T02:58:07.489Z,0.60
2022-12-17T03:00:52.774Z,0.70
2022-12-17T03:03:38.425Z,0.70
2022-12-17T03:06:24.066Z,0.70
2022-12-17T03:09:09.540Z,0.70
2022-12-17T03:11:54.990Z,0.70
2022-12-17T03:14:40.355Z,0.50
2022-12-17T03:17:25.687Z,0.40
2022-12-17T03:20:11.225Z,0.50
2022-12-17T03:22:56.607Z,0.50
2022-12-17T03:25:41.986Z,0.30
2022-12-17T03:28:29.941Z,0.30
2022-12-17T03:31:16.875Z,0.40
2022-12-17T03:34:22.082Z,0.50
2022-12-17T03:37:07.492Z,0.30
2022-12-17T03:39:52.529Z,0.40
2022-12-17T03:42:37.817Z,0.40
2022-12-17T03:45:23.278Z,0.40
2022-12-17T03:48:08.635Z,0.50
2022-12-17T03:50:54.005Z,0.10
2022-12-17T03:53:39.336Z,0.20
2022-12-17T03:56:24.887Z,0.40
2022-12-17T03:59:10.212Z,0.50
2022-12-17T04:01:55.622Z,0.60
2022-12-17T04:04:40.729Z,0.60
2022-12-17T04:07:26.145Z,0.60
2022-12-17T04:10:11.502Z,0.50
2022-12-17T04:12:56.881Z,0.60
2022-12-17T04:15:42.157Z,0.40
2022-12-17T04:18:27.523Z,0.50
2022-12-17T04:21:12.864Z,0.60
2022-12-17T04:23:58.352Z,0.50
2022-12-17T04:26:43.742Z,0.60
2022-12-17T04:29:29.146Z,0.70
2022-12-17T04:32:14.515Z,0.20
2022-12-17T04:34:59.907Z,0.30
2022-12-17T04:37:45.216Z,0.20
2022-12-17T04:40:30.704Z,0.30
2022-12-17T04:43:15.984Z,0.30
2022-12-17T04:46:01.402Z,0.30
2022-12-17T04:48:46.696Z,0.30
2022-12-17T04:51:32.019Z,0.40
2022-12-17T04:54:17.192Z,0.30
2022-12-17T04:57:02.624Z,0.50
2022-12-17T04:59:48.063Z,0.60
2022-12-17T05:02:36.084Z,0.60
2022-12-17T05:05:25.171Z,0.60
2022-12-17T05:08:14.292Z,0.60
2022-12-17T05:10:59.572Z,0.70
2022-12-17T05:13:45.032Z,0.80
2022-12-17T05:16:30.348Z,0.80
2022-12-17T05:19:15.757Z,0.70
2022-12-17T05:22:01.070Z,0.70
2022-12-17T05:24:46.575Z,0.60
2022-12-17T05:27:31.932Z,0.70
2022-12-17T05:30:17.171Z,0.80
2022-12-17T05:33:02.587Z,0.70
2022-12-17T05:35:47.761Z,0.50
2022-12-17T05:38:33.157Z,0.60
2022-12-17T05:41:18.697Z,0.60
2022-12-17T05:44:04.289Z,0.60
2022-12-17T05:46:49.859Z,0.40
2022-12-17T05:49:35.196Z,0.30
2022-12-17T05:52:20.594Z,0.30
2022-12-17T05:55:05.983Z,0.60
2022-12-17T05:57:56.168Z,0.60
2022-12-17T06:00:41.626Z,0.50
2022-12-17T06:03:28.200Z,0.60
2022-12-17T06:06:15.120Z,0.60
2022-12-17T06:09:01.116Z,0.50
2022-12-17T06:11:46.469Z,0.50
2022-12-17T06:14:31.777Z,0.70
2022-12-17T06:17:17.169Z,0.50
2022-12-17T06:20:02.453Z,0.30
2022-12-17T06:22:47.820Z,0.40
2022-12-17T06:25:33.171Z,0.50
2022-12-17T06:28:19.598Z,0.40
2022-12-17T06:31:12.026Z,0.50
2022-12-17T06:33:58.266Z,0.40
2022-12-17T06:36:43.666Z,0.40
2022-12-17T06:39:29.117Z,0.40
2022-12-17T06:42:14.426Z,0.60
2022-12-17T06:44:59.687Z,0.50
2022-12-17T06:47:45.206Z,0.40
2022-12-17T06:50:30.481Z,0.40
2022-12-17T06:53:22.991Z,0.50
2022-12-17T06:56:08.497Z,0.30
2022-12-17T06:58:53.761Z,0.40
2022-12-17T07:01:39.508Z,0.40
2022-12-17T07:04:25.103Z,0.50
2022-12-17T07:07:10.389Z,0.20
2022-12-17T07:09:55.817Z,0.30
2022-12-17T07:12:42.808Z,0.30
2022-12-17T07:15:28.363Z,0.30
2022-12-17T07:18:20.822Z,0.50
2022-12-17T07:21:06.826Z,0.50
2022-12-17T07:23:52.334Z,0.50
2022-12-17T07:26:37.752Z,0.60
2022-12-17T07:29:23.136Z,0.50
2022-12-17T07:32:08.419Z,0.50
2022-12-17T07:34:54.076Z,0.50
2022-12-17T07:37:39.543Z,0.50
2022-12-17T07:40:25.449Z,0.50
2022-12-17T07:43:10.857Z,0.50
2022-12-17T07:45:56.131Z,0.50
2022-12-17T07:48:55.258Z,0.50
2022-12-17T07:51:40.460Z,0.40
2022-12-17T07:54:25.900Z,0.40
2022-12-17T07:57:11.224Z,0.40
2022-12-17T07:59:56.626Z,0.60
2022-12-17T08:02:42.563Z,0.50
2022-12-17T08:05:27.890Z,0.50
2022-12-17T08:08:13.268Z,0.50
2022-12-17T08:10:58.433Z,0.50
2022-12-17T08:13:43.844Z,0.60
2022-12-17T08:16:29.125Z,0.40
2022-12-17T08:19:14.527Z,0.50
2022-12-17T08:22:16.634Z,0.50
2022-12-17T08:25:01.904Z,0.50
2022-12-17T08:27:47.147Z,0.50
2022-12-17T08:30:32.653Z,0.40
2022-12-17T08:33:22.527Z,0.50
2022-12-17T08:36:15.540Z,0.50
2022-12-17T08:39:01.411Z,0.60
2022-12-17T08:41:52.700Z,0.60
2022-12-17T08:44:39.599Z,0.70
2022-12-17T08:47:24.848Z,0.60
2022-12-17T08:50:10.155Z,0.60
2022-12-17T08:52:55.497Z,0.60
2022-12-17T08:55:40.830Z,0.30
2022-12-17T08:58:27.011Z,0.50
2022-12-17T09:01:12.596Z,0.30
2022-12-17T09:03:57.895Z,0.30
2022-12-17T09:06:43.310Z,0.40
2022-12-17T09:09:28.588Z,0.50
2022-12-17T09:12:13.838Z,0.50
2022-12-17T09:14:59.107Z,0.50
2022-12-17T09:17:44.454Z,0.50
2022-12-17T09:20:29.900Z,0.40
2022-12-17T09:23:15.393Z,0.50
2022-12-17T09:26:00.648Z,0.60
2022-12-17T09:28:46.081Z,0.40
2022-12-17T09:31:37.061Z,0.20
2022-12-17T09:34:22.813Z,0.20
2022-12-17T09:37:08.220Z,0.00
2022-12-17T09:39:53.732Z,0.10
2022-12-17T09:42:52.606Z,0.00
2022-12-17T09:45:44.699Z,0.10
2022-12-17T09:49:14.527Z,0.20
2022-12-17T09:51:59.816Z,0.20
2022-12-17T09:55:00.825Z,0.10
2022-12-17T09:57:52.475Z,0.20
2022-12-17T10:00:40.935Z,0.20
2022-12-17T10:03:35.392Z,0.10
2022-12-17T10:06:36.020Z,0.10
2022-12-17T10:09:31.484Z,0.10
2022-12-17T10:12:21.298Z,0.20
2022-12-17T10:15:06.606Z,0.40
2022-12-17T10:17:52.076Z,0.30
2022-12-17T10:20:48.661Z,0.30
2022-12-17T10:23:51.187Z,0.30
2022-12-17T10:26:42.139Z,0.50
2022-12-17T10:29:43.993Z,0.70
2022-12-17T10:32:35.185Z,0.70
2022-12-17T10:35:37.938Z,0.80
2022-12-17T10:38:56.504Z,0.60
2022-12-17T10:41:47.757Z,0.30
2022-12-17T10:44:52.389Z,0.60
2022-12-17T10:47:40.182Z,0.80
2022-12-17T10:50:34.343Z,0.60
2022-12-17T10:53:20.948Z,0.60
2022-12-17T10:56:14.987Z,0.70
2022-12-17T10:59:05.774Z,0.80
2022-12-17T11:01:51.407Z,0.90
2022-12-17T11:04:51.341Z,0.60
2022-12-17T11:07:47.153Z,0.50
2022-12-17T11:10:36.923Z,0.60
2022-12-17T11:13:26.875Z,0.70
2022-12-17T11:16:15.988Z,0.50
2022-12-17T11:19:15.046Z,0.60
2022-12-17T11:22:07.515Z,0.60
2022-12-17T11:25:00.215Z,0.60
2022-12-17T11:27:56.355Z,0.60
2022-12-17T11:30:41.719Z,0.70
2022-12-17T11:33:30.199Z,0.60
2022-12-17T11:36:24.259Z,0.50
2022-12-17T11:39:24.674Z,0.70
2022-12-17T11:42:25.106Z,0.60
2022-12-17T11:45:29.151Z,0.60
2022-12-17T11:48:33.706Z,0.70
2022-12-17T11:51:39.332Z,0.50
2022-12-17T11:54:40.487Z,0.70
2022-12-17T11:57:42.704Z,0.60
2022-12-17T12:00:39.236Z,0.50
2022-12-17T12:03:43.555Z,0.30
2022-12-17T12:07:10.544Z,0.30
2022-12-17T12:10:07.279Z,0.20
2022-12-17T12:13:01.246Z,0.50
2022-12-17T12:15:52.979Z,0.20
2022-12-17T12:19:16.225Z,0.40
2022-12-17T12:22:18.759Z,0.90
2022-12-17T12:25:23.286Z,0.80
2022-12-17T12:28:24.832Z,0.60
2022-12-17T12:31:38.423Z,0.50
2022-12-17T12:34:30.831Z,0.70
2022-12-17T12:37:20.044Z,0.60
2022-12-17T12:40:18.191Z,0.60
2022-12-17T12:43:14.574Z,0.70
2022-12-17T12:46:10.935Z,0.50
2022-12-17T12:49:10.146Z,0.70
2022-12-17T12:51:56.542Z,0.50
2022-12-17T12:55:24.507Z,0.70
2022-12-17T12:58:20.810Z,0.50
2022-12-17T13:01:06.265Z,0.50
2022-12-17T13:04:03.474Z,0.70
2022-12-17T13:06:50.503Z,0.90
2022-12-17T13:09:17.861Z,0.70
2022-12-17T13:12:07.729Z,0.40
2022-12-17T13:15:02.589Z,0.20
2022-12-17T13:17:58.754Z,0.20
2022-12-17T13:20:25.504Z,0.40
2022-12-17T13:23:14.637Z,0.30
2022-12-17T13:25:41.432Z,0.40
2022-12-17T13:28:30.924Z,0.40
2022-12-17T13:31:03.156Z,0.50
2022-12-17T13:33:46.138Z,0.60
2022-12-17T13:36:21.174Z,0.40
2022-12-17T13:39:19.200Z,0.50
2022-12-17T13:41:45.843Z,0.10
2022-12-17T13:44:22.522Z,0.10
2022-12-17T13:46:50.850Z,0.30
2022-12-17T13:49:23.330Z,0.50
2022-12-17T13:52:05.212Z,0.60
2022-12-17T13:54:34.742Z,0.90
2022-12-17T13:57:27.694Z,0.90
2022-12-17T13:59:56.291Z,0.80
2022-12-17T14:02:29.227Z,0.70
2022-12-17T14:05:01.640Z,0.60
2022-12-17T14:07:33.562Z,0.70
2022-12-17T14:10:00.263Z,0.50
2022-12-17T14:12:29.799Z,0.30
2022-12-17T14:15:02.125Z,0.10
2022-12-17T14:17:36.093Z,0.30
2022-12-17T14:20:07.235Z,0.80
2022-12-17T14:22:49.400Z,1.00
2022-12-17T14:25:24.607Z,0.80
2022-12-17T14:28:34.290Z,0.50
2022-12-17T14:31:29.683Z,0.10
2022-12-17T14:34:07.851Z,0.00
2022-12-17T14:36:37.602Z,0.00
2022-12-17T14:39:16.583Z,-0.10
2022-12-17T14:42:01.845Z,0.00
2022-12-17T14:44:30.276Z,0.30
2022-12-17T14:47:19.984Z,0.40
2022-12-17T14:50:02.310Z,0.20
2022-12-17T14:52:40.805Z,-0.10
2022-12-17T14:55:33.732Z,-0.20
2022-12-17T14:58:17.497Z,0.10
2022-12-17T15:00:47.224Z,0.00
2022-12-17T15:03:28.825Z,0.20
2022-12-17T15:06:02.219Z,0.40
2022-12-17T15:08:35.673Z,0.20
2022-12-17T15:11:03.021Z,0.10
2022-12-17T15:13:29.586Z,0.10
2022-12-17T15:15:56.255Z,0.00
2022-12-17T15:18:24.554Z,-0.50
2022-12-17T15:20:51.212Z,-0.20
2022-12-17T15:23:20.000Z,-0.20
2022-12-17T15:25:48.337Z,-0.40
2022-12-17T15:28:16.231Z,-0.50
2022-12-17T15:30:42.931Z,-0.30
2022-12-17T15:33:10.729Z,-0.40
2022-12-17T15:35:38.151Z,-0.50
2022-12-17T15:38:06.297Z,-0.60
2022-12-17T15:40:33.657Z,-0.70
2022-12-17T15:43:12.358Z,-0.70
2022-12-17T15:45:39.003Z,-0.70
2022-12-17T15:48:05.694Z,-0.80
2022-12-17T15:50:32.250Z,-0.90
2022-12-17T15:52:58.801Z,-0.80
2022-12-17T15:55:25.486Z,-0.80
2022-12-17T15:57:52.183Z,-0.60
2022-12-17T16:00:18.980Z,-0.60
2022-12-17T16:02:45.827Z,-0.50
2022-12-17T16:05:12.536Z,-0.60
2022-12-17T16:07:39.144Z,-0.60
2022-12-17T16:10:06.794Z,-0.80
2022-12-17T16:12:33.472Z,-0.80
2022-12-17T16:15:00.085Z,-0.80
2022-12-17T16:17:26.781Z,-0.80
2022-12-17T16:19:53.423Z,-0.60
2022-12-17T16:22:20.094Z,-0.80
2022-12-17T16:24:46.834Z,-0.90
2022-12-17T16:27:14.537Z,-0.90
2022-12-17T16:29:41.199Z,-0.90
2022-12-17T16:32:07.938Z,-1.00
2022-12-17T16:34:34.593Z,-1.00
2022-12-17T16:37:01.541Z,-1.00
2022-12-17T16:39:28.592Z,-1.00
2022-12-17T16:41:55.232Z,-1.20
2022-12-17T16:44:21.797Z,-1.20
2022-12-17T16:46:48.461Z,-1.20
2022-12-17T16:49:21.626Z,-1.10
2022-12-17T16:51:52.770Z,-1.20
2022-12-17T16:54:25.849Z,-1.20
2022-12-17T16:56:53.418Z,-1.20
2022-12-17T16:59:20.702Z,-1.20
2022-12-17T17:01:49.090Z,-1.10
2022-12-17T17:04:17.732Z,-1.10
2022-12-17T17:06:50.073Z,-1.10
2022-12-17T17:09:17.321Z,-1.30
2022-12-17T17:11:49.509Z,-1.30
2022-12-17T17:14:18.091Z,-1.20
2022-12-17T17:16:44.796Z,-1.10
2022-12-17T17:19:11.482Z,-1.30
2022-12-17T17:21:40.516Z,-1.40
2022-12-17T17:24:18.537Z,-1.40
2022-12-17T17:26:47.754Z,-1.40
2022-12-17T17:29:14.486Z,-1.40
2022-12-17T17:34:27.687Z,-1.60
2022-12-17T17:36:54.267Z,-1.60
2022-12-17T17:39:21.175Z,-1.60
2022-12-17T17:41:47.907Z,-1.50
2022-12-17T17:44:16.283Z,-1.60
2022-12-17T17:46:42.971Z,-1.60
2022-12-17T17:49:09.765Z,-1.70
2022-12-17T17:52:08.307Z,-1.90
2022-12-17T17:54:26.019Z,-1.80
2022-12-17T17:56:52.665Z,-1.80
2022-12-17T17:59:19.611Z,-1.90
2022-12-17T18:01:49.468Z,-1.90
2022-12-17T18:04:18.885Z,-2.00
2022-12-17T18:07:16.089Z,-2.00
2022-12-17T18:09:33.423Z,-2.10
2022-12-17T18:12:19.990Z,-2.10
2022-12-17T18:15:12.177Z,-2.20
2022-12-17T18:17:33.135Z,-2.20
2022-12-17T18:19:59.704Z,-2.10
2022-12-17T18:22:27.537Z,-2.00
2022-12-17T18:24:54.148Z,-2.00
2022-12-17T18:27:20.702Z,-2.10
2022-12-17T18:29:47.264Z,-2.10
2022-12-17T18:32:13.929Z,-2.10
2022-12-17T18:34:40.584Z,-2.00
2022-12-17T18:37:07.215Z,-2.00
2022-12-17T18:39:33.776Z,-2.00
2022-12-17T18:42:18.951Z,-2.10
2022-12-17T18:44:45.553Z,-2.20
2022-12-17T18:47:12.217Z,-2.10
2022-12-17T18:49:39.415Z,-2.20
2022-12-17T18:52:09.396Z,-2.20
2022-12-17T18:54:39.628Z,-2.20
2022-12-17T18:57:06.240Z,-2.30
2022-12-17T18:59:32.911Z,-2.30
2022-12-17T19:01:59.673Z,-2.20
2022-12-17T19:04:27.452Z,-2.20
2022-12-17T19:06:54.552Z,-2.20
2022-12-17T19:09:28.082Z,-2.20
2022-12-17T19:11:56.072Z,-2.10
2022-12-17T19:14:23.356Z,-2.20
2022-12-17T19:16:51.738Z,-2.30
2022-12-17T19:19:19.532Z,-2.30
2022-12-17T19:21:46.316Z,-2.30
2022-12-17T19:24:15.282Z,-2.30
2022-12-17T19:26:42.293Z,-2.40
2022-12-17T19:29:10.612Z,-2.30
2022-12-17T19:31:37.395Z,-2.20
2022-12-17T19:34:06.699Z,-2.20
2022-12-17T19:36:35.064Z,-2.30
2022-12-17T19:39:05.430Z,-2.40
2022-12-17T19:41:32.796Z,-2.30
2022-12-17T19:44:02.715Z,-2.30
2022-12-17T19:46:31.421Z,-2.20
2022-12-17T19:48:58.387Z,-2.20
2022-12-17T19:51:26.851Z,-2.20
2022-12-17T19:53:54.609Z,-2.10
2022-12-17T19:56:25.455Z,-2.10
2022-12-17T19:58:55.132Z,-2.20
2022-12-17T20:01:24.836Z,-2.10
2022-12-17T20:03:52.224Z,-2.00
2022-12-17T20:06:20.724Z,-2.30
2022-12-17T20:08:47.308Z,-2.20
2022-12-17T20:11:33.779Z,-2.00
2022-12-17T20:14:01.758Z,-2.00
2022-12-17T20:16:30.291Z,-2.10
2022-12-17T20:18:59.994Z,-2.10
2022-12-17T20:21:27.020Z,-2.30
2022-12-17T20:23:53.788Z,-2.10
2022-12-17T20:26:20.746Z,-2.10
2022-12-17T20:28:47.543Z,-2.20
2022-12-17T20:31:14.690Z,-2.20
2022-12-17T20:33:41.357Z,-2.00
2022-12-17T20:36:10.728Z,-1.90
2022-12-17T20:38:38.239Z,-1.90
2022-12-17T20:41:15.551Z,-2.00
2022-12-17T20:43:42.640Z,-2.00
2022-12-17T20:46:10.388Z,-1.90
2022-12-17T20:48:38.827Z,-2.20
2022-12-17T20:51:11.843Z,-2.30
2022-12-17T20:53:38.964Z,-2.30
2022-12-17T20:56:08.905Z,-2.20
2022-12-17T20:58:36.644Z,-2.00
2022-12-17T21:01:13.704Z,-1.90
2022-12-17T21:03:40.802Z,-1.90
2022-12-17T21:06:13.089Z,-2.00
2022-12-17T21:08:46.191Z,-2.10
2022-12-17T21:11:21.141Z,-2.00
2022-12-17T21:13:47.930Z,-2.00
2022-12-17T21:16:18.282Z,-2.00
2022-12-17T21:18:45.349Z,-2.10
2022-12-17T21:21:16.080Z,-2.20
2022-12-17T21:23:42.688Z,-2.10
2022-12-17T21:26:23.873Z,-2.20
2022-12-17T21:28:54.373Z,-2.10
2022-12-17T21:31:29.696Z,-2.10
2022-12-17T21:33:59.002Z,-2.20
2022-12-17T21:36:28.268Z,-2.20
2022-12-17T21:38:55.097Z,-2.30
2022-12-17T21:41:24.469Z,-2.30
2022-12-17T21:43:59.098Z,-2.10
2022-12-17T21:46:27.366Z,-2.00
2022-12-17T21:48:55.587Z,-2.10
2022-12-17T21:51:22.660Z,-2.10
2022-12-17T21:53:57.861Z,-2.10
2022-12-17T21:56:24.801Z,-2.10
2022-12-17T21:58:56.554Z,-2.40
2022-12-17T22:01:25.549Z,-2.50
2022-12-17T22:03:54.551Z,-2.30
2022-12-17T22:06:25.074Z,-2.40
2022-12-17T22:09:01.492Z,-2.30
2022-12-17T22:11:33.133Z,-2.20
2022-12-17T22:14:08.155Z,-2.20
2022-12-17T22:16:36.206Z,-2.20
2022-12-17T22:19:07.064Z,-2.20
2022-12-17T22:21:39.047Z,-2.20
2022-12-17T22:24:06.821Z,-2.20
2022-12-17T22:26:36.760Z,-2.00
2022-12-17T22:29:03.463Z,-1.90
2022-12-17T22:31:48.927Z,-2.00
2022-12-17T22:35:21.755Z,-2.00
2022-12-17T22:41:09.592Z,-2.00
2022-12-17T22:44:30.449Z,-1.90
2022-12-17T22:44:38.906Z,-2.00
2022-12-17T22:45:42.008Z,-2.00
2022-12-17T22:48:10.794Z,-2.10
2022-12-17T22:50:43.909Z,-2.20
2022-12-17T22:53:25.017Z,-2.10
2022-12-17T22:55:52.567Z,-2.10
2022-12-17T22:58:20.128Z,-2.10
2022-12-17T23:00:46.744Z,-2.10
2022-12-17T23:03:13.488Z,-2.20
2022-12-17T23:05:40.186Z,-2.10
2022-12-17T23:08:06.959Z,-2.50
2022-12-17T23:10:33.661Z,-2.40
2022-12-17T23:13:00.393Z,-2.20
2022-12-17T23:15:30.986Z,-2.20
2022-12-17T23:18:00.391Z,-2.10
2022-12-17T23:20:30.143Z,-2.30
2022-12-17T23:22:57.345Z,-2.40
2022-12-17T23:25:24.528Z,-2.30
2022-12-17T23:27:51.459Z,-2.10
2022-12-17T23:30:19.158Z,-1.90
2022-12-17T23:32:46.201Z,-2.00
2022-12-17T23:35:13.703Z,-2.20
2022-12-17T23:37:40.794Z,-2.20
2022-12-17T23:40:11.764Z,-2.20
2022-12-17T23:42:38.773Z,-2.10
2022-12-17T23:45:06.839Z,-2.10
2022-12-17T23:47:33.536Z,-2.00
2022-12-17T23:50:00.176Z,-1.90
2022-12-17T23:52:26.891Z,-1.70
2022-12-17T23:54:53.659Z,-1.60
2022-12-17T23:57:20.310Z,-1.40
2022-12-17T23:59:47.008Z,-1.40
